Columbia (COU/KCOU)

Map

Destinations

Information

Location
Columbia, Missouri
Local Time
06:47 / 6:47 am
GMT Time
12:47 / 12:47 pm
Gates
Unassigned
No FAA reported delays
METAR KCOU 161217Z AUTO 11010KT 3SM -RA BR OVC002 03/03 A3004 RMK AO2 P0002 T00330033
TAF KCOU 161131Z 1612/1712 11008KT 4SM -SHRA BR OVC003 FM161700 13010KT 4SM -SHRA BR OVC008 FM162300 16007KT 5SM BR VCSH OVC010 FM170300 21007KT 5SM BR OVC008
  • No charts available